Flight Track Log - Related Links

Times and Time Zones

All times are in EST time to prevent confusion due to time zone crossing. See the N830QS flight status page for this flight to view local times or setup timezone preferences in your user account.

Time Position Orientation Groundspeed Altitude Reporting Facility
EST Latitude Longitude Course Direction KTS MPH feet Rate Location/Type
Sun 02:55:12 PM 35.1536 -85.9981 90° East 284 327 6,800  Level Memphis Center
Sun 02:56:03 PM 35.1847 -85.9067 67° East 357 411 10,400 3,189 Climbing Atlanta Center
Sun 02:57:03 PM 35.2194 -85.8108 66° East 305 351 12,700 2,250 Climbing Atlanta Center
Sun 02:58:03 PM 35.2606 -85.6997 66° East 337 388 14,900 2,200 Climbing Atlanta Center
Sun 02:59:03 PM 35.3061 -85.5758 66° East 370 426 17,100 2,136 Climbing Atlanta Center
Sun 03:00:00 PM 35.5255 -85.4232 90° East  Level Estimated
Sun 03:00:15 PM 35.3619 -85.4242 66° East 400 460 19,600  Level Atlanta Center
Sun 03:01:15 PM 35.4072 -85.2950 67° East 400 460 21,800 2,100 Climbing Atlanta Center
Sun 03:02:15 PM 35.4544 -85.1631 66° East 405 466 23,800 1,850 Climbing Atlanta Center
Sun 03:03:15 PM 35.5036 -85.0261 66° East 424 488 25,500 1,700 Climbing Atlanta Center
Sun 03:04:15 PM 35.5528 -84.8861 67° East 429 494 27,200 1,700 Climbing Atlanta Center
Sun 03:05:15 PM 35.6056 -84.7489 65° Northeast 435 501 28,900 1,600 Climbing Atlanta Center
Sun 03:06:15 PM 35.6522 -84.6061 68° East 435 501 30,400 1,400 Climbing Atlanta Center
Sun 03:07:15 PM 35.7031 -84.4683 66° East 435 501 31,700 1,250 Climbing Atlanta Center
Sun 03:08:15 PM 35.7472 -84.3433 66° East 442 509 32,900 1,150 Climbing Atlanta Center
Sun 03:09:15 PM 35.7975 -84.2025 66° East 442 509 34,000 1,050 Climbing Atlanta Center
Sun 03:10:15 PM 35.8475 -84.0592 67° East 442 509 35,000 1,000 Climbing Atlanta Center
Sun 03:11:15 PM 35.8956 -83.9183 67° East 442 509 36,000 950 Climbing Atlanta Center
Sun 03:12:15 PM 35.9517 -83.7769 64° Northeast 442 509 36,900 900 Climbing Atlanta Center
Sun 03:13:15 PM 36.0056 -83.6331 65° Northeast 442 509 37,800 900 Climbing Atlanta Center
Sun 03:14:15 PM 36.0653 -83.4814 64° Northeast 442 509 38,700 900 Climbing Atlanta Center
Sun 03:15:15 PM 36.1189 -83.3394 65° Northeast 442 509 39,600 950 Climbing Atlanta Center
Sun 03:16:15 PM 36.1722 -83.2003 65° Northeast 442 509 40,600 700 Climbing Atlanta Center
Sun 03:17:15 PM 36.2233 -83.0608 66° East 442 509 41,000 200 Climbing Atlanta Center
Sun 03:18:15 PM 36.2783 -82.9183 64° Northeast 448 516 41,000  Level Atlanta Center
Sun 03:19:15 PM 36.3333 -82.7706 65° Northeast 453 521 41,000  Level Atlanta Center
Sun 03:20:15 PM 36.3900 -82.6228 64° Northeast 468 539 41,000  Level Atlanta Center
Sun 03:21:15 PM 36.4467 -82.4722 65° Northeast 468 539 41,000  Level Atlanta Center
Sun 03:22:15 PM 36.5031 -82.3186 65° Northeast 475 547 41,000  Level Atlanta Center
Sun 03:23:15 PM 36.5592 -82.1675 65° Northeast 475 547 41,000  Level Atlanta Center
Sun 03:24:15 PM 36.6172 -82.0161 64° Northeast 475 547 41,000  Level Atlanta Center
Sun 03:25:15 PM 36.6731 -81.8647 65° Northeast 482 555 41,000  Level Atlanta Center
Sun 03:26:15 PM 36.7286 -81.7103 66° East 482 555 41,000  Level Atlanta Center
Sun 03:27:15 PM 36.7861 -81.5608 64° Northeast 482 555 41,000  Level Atlanta Center
Sun 03:28:15 PM 36.8331 -81.4142 68° East 468 539 41,000  Level Atlanta Center
Sun 03:29:15 PM 36.8842 -81.2750 65° Northeast 468 539 41,000  Level Atlanta Center
Sun 03:30:15 PM 36.9369 -81.1250 66° East 468 539 41,000  Level Atlanta Center
Sun 03:31:53 PM 37.0331 -80.8633 65° Northeast 482 555 41,000  Level Washington Center
Sun 03:32:53 PM 37.0878 -80.7108 66° East 482 555 41,000  Level Washington Center
Sun 03:33:55 PM 37.1153 -80.5486 78° East 477 549 41,000  Level Washington Center
Sun 03:34:55 PM 37.1431 -80.3836 78° East 477 549 41,000  Level Washington Center
Sun 03:35:53 PM 37.1656 -80.2336 79° East 483 556 41,000  Level Washington Center
Sun 03:36:54 PM 37.1928 -80.0686 78° East 483 556 41,000  Level Washington Center
Sun 03:37:54 PM 37.2197 -79.9031 78° East 483 556 41,000  Level Washington Center
Sun 03:38:55 PM 37.2444 -79.7375 79° East 483 556 41,000  Level Washington Center
Sun 03:39:55 PM 37.2714 -79.5511 80° East 483 556 41,000 -694 Level Washington Center
Sun 03:40:56 PM 37.3000 -79.3803 78° East 488 562 39,600 -1,412 Descending Washington Center
Sun 03:41:54 PM 37.3233 -79.2353 79° East 482 555 38,200 -1,424 Descending Washington Center
Sun 03:42:54 PM 37.3464 -79.0847 79° East 458 527 36,800 -1,350 Descending Washington Center
Sun 03:43:54 PM 37.3694 -78.9394 79° East 437 503 35,500 -1,041 Descending Washington Center
Sun 03:44:55 PM 37.3950 -78.7653 79° East 442 509 34,700 -756 Descending Washington Center
Sun 03:45:53 PM 37.4200 -78.6069 79° East 454 522 34,000 -353 Descending Washington Center
Sun 03:46:54 PM 37.4428 -78.4483 80° East 454 522 34,000  Level Washington Center
Sun 03:47:54 PM 37.4672 -78.2922 79° East 454 522 34,000  Level Washington Center
Sun 03:48:55 PM 37.4853 -78.1331 82° East 467 537 34,000 -295 Level Washington Center
Sun 03:49:56 PM 37.5156 -77.9797 76° East 461 531 33,400 -1,059 Descending Washington Center
Sun 03:50:54 PM 37.5889 -77.8508 54° Northeast 445 512 31,900 -1,210 Descending Washington Center
Sun 03:51:55 PM 37.6744 -77.7406 46° Northeast 436 502 31,000 -1,041 Descending Washington Center
Sun 03:52:55 PM 37.7597 -77.6353 44° Northeast 430 495 29,800 -1,450 Descending Washington Center
Sun 03:53:55 PM 37.8511 -77.5328 42° Northeast 430 495 28,100 -915 Descending Washington Center
Sun 03:54:53 PM 37.9506 -77.4431 35° Northeast 430 495 28,000 -508 Descending Washington Center
Sun 03:55:53 PM 38.0497 -77.3533 35° Northeast 430 495 27,100 -885 Descending Washington Center
Sun 03:56:55 PM 38.1511 -77.2631 35° Northeast 435 501 26,200 -885 Descending Washington Center
Sun 03:57:55 PM 38.2483 -77.1703 37° Northeast 435 501 25,300 -900 Descending Washington Center
Sun 03:58:55 PM 38.3433 -77.0847 35° Northeast 430 495 24,400 -661 Descending Washington Center
Sun 03:59:53 PM 38.4339 -76.9992 36° Northeast 417 480 24,000 -202 Descending Washington Center
Sun 04:00:54 PM 38.5139 -76.9264 35° Northeast 400 460 24,000  Level Washington Center
Sun 04:01:54 PM 38.6003 -76.8456 36° Northeast 389 448 24,000  Level Washington Center
Sun 04:02:55 PM 38.6825 -76.7644 38° Northeast 384 442 24,000 -655 Level Washington Center
Sun 04:03:53 PM 38.7275 -76.6322 66° East 379 436 22,700 -1,714 Descending Washington Center
Sun 04:04:54 PM 38.7600 -76.4808 75° East 398 458 20,600 -2,016 Descending Washington Center
Sun 04:05:55 PM 38.7881 -76.3375 76° East 410 472 18,600 -1,966 Descending Washington Center
Sun 04:06:53 PM 38.8181 -76.1964 75° East 410 472 16,700 -1,831 Descending Washington Center
Sun 04:07:53 PM 38.8519 -76.0475 74° East 410 472 15,000 -843 Descending Washington Center
Sun 04:08:54 PM 38.8794 -75.9117 75° East 392 451 15,000  Level Washington Center
Sun 04:09:55 PM 38.9297 -75.7997 60° Northeast 363 418 15,000  Level Washington Center
Sun 04:10:53 PM 39.0092 -75.7253 36° Northeast 351 404 15,000  Level Washington Center
Sun 04:11:54 PM 39.0989 -75.6744 24° Northeast 338 389 15,000 -889 Level Washington Center
Sun 04:13:35 PM 39.2500 -75.6500 North 288 331 12,600 -1,150 Descending Philadelphia TRACON
Sun 04:14:41 PM 39.3333 -75.6667 351° North 261 300 11,800 -810 Descending Philadelphia TRACON
Sun 04:15:41 PM 39.4000 -75.6833 349° North 274 315 10,900 -1,000 Descending Philadelphia TRACON
Sun 04:16:47 PM 39.4833 -75.6833 360° North 272 313 9,700 -1,316 Descending Philadelphia TRACON
Sun 04:17:35 PM 39.5500 -75.7000 349° North 262 302 8,400 -1,579 Descending Philadelphia TRACON
Sun 04:18:41 PM 39.6167 -75.7000 360° North 247 284 6,700 -1,571 Descending Philadelphia TRACON
Sun 04:19:41 PM 39.6833 -75.7333 339° North 234 269 5,100 -1,388 Descending Philadelphia TRACON
Sun 04:20:42 PM 39.7500 -75.7500 349° North 239 275 3,900 -1,091 Descending Philadelphia TRACON
Sun 04:21:42 PM 39.8167 -75.7833 339° North 230 265 2,900 -500 Descending Philadelphia TRACON
Sun 04:22:42 PM 39.8667 -75.8000 346° North 216 249 2,900  Level Philadelphia TRACON

Login

Don't have an account? Register now (free) for customized features, flight alerts, and more!